createdAt,value
2017-10-26T00:00:06.239Z,7.16
2017-10-26T00:02:50.099Z,7.13
2017-10-26T00:05:24.930Z,7.10
2017-10-26T00:07:59.800Z,7.08
2017-10-26T00:10:41.166Z,7.08
2017-10-26T00:13:19.366Z,7.07
2017-10-26T00:15:59.386Z,7.02
2017-10-26T00:21:25.484Z,6.87
2017-10-26T00:26:45.091Z,6.77
2017-10-26T00:32:06.639Z,6.72
2017-10-26T00:34:43.477Z,6.67
2017-10-26T00:37:23.930Z,6.65
2017-10-26T00:39:58.790Z,6.62
2017-10-26T00:42:42.192Z,6.54
2017-10-26T00:45:22.999Z,6.53
2017-10-26T00:48:12.031Z,6.47
2017-10-26T00:50:48.965Z,6.46
2017-10-26T00:53:24.465Z,6.46
2017-10-26T00:56:06.433Z,6.45
2017-10-26T00:58:40.972Z,6.47
2017-10-26T01:01:15.743Z,6.42
2017-10-26T01:03:53.181Z,6.39
2017-10-26T01:06:33.787Z,6.37
2017-10-26T01:09:08.665Z,6.39
2017-10-26T01:11:48.973Z,6.29
2017-10-26T01:14:29.374Z,6.30
2017-10-26T01:17:07.202Z,6.29
2017-10-26T01:19:42.015Z,6.29
2017-10-26T01:22:24.622Z,6.32
2017-10-26T01:34:06.289Z,6.15
2017-10-26T01:36:43.678Z,6.17
2017-10-26T01:39:19.523Z,6.20
2017-10-26T01:41:58.774Z,6.10
2017-10-26T01:44:41.781Z,6.09
2017-10-26T01:47:23.394Z,6.11
2017-10-26T01:49:59.105Z,6.14
2017-10-26T01:52:43.769Z,6.13
2017-10-26T01:55:24.763Z,6.19
2017-10-26T01:58:10.750Z,6.11
2017-10-26T02:00:45.871Z,6.10
2017-10-26T02:03:21.598Z,6.13
2017-10-26T02:05:57.599Z,6.16
2017-10-26T02:08:35.076Z,6.21
2017-10-26T02:11:12.098Z,6.18
2017-10-26T02:13:47.100Z,6.28
2017-10-26T02:16:24.391Z,6.27
2017-10-26T02:18:59.392Z,6.15
2017-10-26T02:21:45.234Z,6.08
2017-10-26T02:24:22.287Z,6.06
2017-10-26T02:26:57.424Z,5.88
2017-10-26T02:29:36.951Z,5.84
2017-10-26T02:32:21.851Z,5.67
2017-10-26T02:35:01.787Z,5.66
2017-10-26T02:37:40.129Z,5.54
2017-10-26T02:40:16.960Z,5.56
2017-10-26T02:42:51.572Z,5.63
2017-10-26T02:45:26.244Z,5.68
2017-10-26T02:48:01.770Z,5.68
2017-10-26T02:50:41.731Z,5.72
2017-10-26T02:53:18.674Z,5.78
2017-10-26T02:55:53.266Z,5.76
2017-10-26T03:01:13.742Z,5.85
2017-10-26T03:03:49.850Z,5.87
2017-10-26T03:06:26.934Z,5.91
2017-10-26T03:09:02.498Z,5.96
2017-10-26T03:11:38.078Z,5.98
2017-10-26T03:14:17.427Z,5.95
2017-10-26T03:17:08.294Z,6.04
2017-10-26T03:19:43.023Z,6.02
2017-10-26T03:22:17.997Z,6.09
2017-10-26T03:24:44.774Z,6.14
2017-10-26T03:27:29.217Z,6.12
2017-10-26T03:30:07.353Z,6.16
2017-10-26T03:32:48.678Z,6.19
2017-10-26T03:35:23.692Z,6.20
2017-10-26T03:38:00.412Z,6.20
2017-10-26T03:40:36.977Z,6.28
2017-10-26T03:43:11.640Z,6.32
2017-10-26T03:45:56.960Z,6.35
2017-10-26T03:48:32.611Z,6.38
2017-10-26T03:51:00.176Z,6.45
2017-10-26T03:53:37.364Z,6.52
2017-10-26T03:56:15.501Z,6.51
2017-10-26T03:58:51.335Z,6.61
2017-10-26T04:01:18.945Z,6.65
2017-10-26T04:03:50.674Z,6.76
2017-10-26T04:06:26.720Z,6.77
2017-10-26T04:09:10.340Z,6.84
2017-10-26T04:11:45.419Z,6.85
2017-10-26T04:14:28.609Z,6.85
2017-10-26T04:17:03.652Z,6.94
2017-10-26T04:19:47.974Z,6.94
2017-10-26T04:22:25.374Z,6.95
2017-10-26T04:25:09.232Z,7.01
2017-10-26T04:27:44.257Z,7.03
2017-10-26T04:30:20.056Z,7.07
2017-10-26T04:32:56.472Z,7.07
2017-10-26T04:35:31.061Z,7.06
2017-10-26T04:38:08.368Z,7.08
2017-10-26T04:40:43.787Z,7.15
2017-10-26T04:43:18.472Z,7.16
2017-10-26T04:45:53.288Z,7.17
2017-10-26T04:48:28.214Z,7.20
2017-10-26T04:50:54.918Z,7.17
2017-10-26T04:53:30.193Z,7.15
2017-10-26T04:56:04.772Z,7.23
2017-10-26T04:58:39.456Z,7.23
2017-10-26T05:01:13.931Z,7.23
2017-10-26T05:03:48.436Z,7.35
2017-10-26T05:06:23.065Z,7.43
2017-10-26T05:08:58.685Z,7.46
2017-10-26T05:11:34.039Z,7.52
2017-10-26T05:14:11.589Z,7.56
2017-10-26T05:16:52.195Z,7.60
2017-10-26T05:19:35.414Z,7.73
2017-10-26T05:22:15.634Z,7.83
2017-10-26T05:24:42.528Z,7.85
2017-10-26T05:27:17.003Z,7.93
2017-10-26T05:29:52.555Z,8.04
2017-10-26T05:32:27.610Z,8.11
2017-10-26T05:35:02.870Z,8.18
2017-10-26T05:37:38.189Z,8.27
2017-10-26T05:40:17.949Z,8.33
2017-10-26T05:42:52.585Z,8.37
2017-10-26T05:45:29.244Z,8.51
2017-10-26T05:48:03.985Z,8.60
2017-10-26T05:50:39.452Z,8.64
2017-10-26T05:53:14.988Z,8.76
2017-10-26T05:55:49.436Z,8.80
2017-10-26T05:58:24.058Z,8.87
2017-10-26T06:01:00.251Z,8.94
2017-10-26T06:03:35.153Z,8.92
2017-10-26T06:06:10.528Z,8.96
2017-10-26T06:08:45.287Z,9.05
2017-10-26T06:11:21.565Z,8.97
2017-10-26T06:17:05.408Z,8.90
2017-10-26T06:19:42.903Z,8.91
2017-10-26T06:22:17.420Z,8.96
2017-10-26T06:24:51.915Z,9.01
2017-10-26T06:27:27.338Z,9.10
2017-10-26T06:30:02.700Z,9.15
2017-10-26T06:32:39.010Z,9.16
2017-10-26T06:35:13.421Z,9.24
2017-10-26T06:37:47.874Z,9.27
2017-10-26T06:40:23.216Z,9.28
2017-10-26T06:42:57.826Z,9.37
2017-10-26T06:45:33.400Z,9.44
2017-10-26T06:48:10.760Z,9.51
2017-10-26T06:50:46.085Z,9.52
2017-10-26T06:53:21.633Z,9.65
2017-10-26T06:55:56.061Z,9.68
2017-10-26T06:58:32.922Z,9.89
2017-10-26T07:01:07.743Z,9.86
2017-10-26T07:03:45.522Z,9.88
2017-10-26T07:06:20.684Z,10.07
2017-10-26T07:09:01.039Z,10.12
2017-10-26T07:11:36.322Z,10.19
2017-10-26T07:14:11.623Z,10.25
2017-10-26T07:16:46.369Z,10.24
2017-10-26T07:19:21.555Z,10.18
2017-10-26T07:21:59.053Z,10.10
2017-10-26T07:24:26.743Z,10.06
2017-10-26T07:27:01.287Z,10.19
2017-10-26T07:29:36.868Z,10.23
2017-10-26T07:32:12.126Z,10.27
2017-10-26T07:34:47.730Z,10.23
2017-10-26T07:37:22.461Z,10.38
2017-10-26T07:39:57.657Z,10.49
2017-10-26T07:42:32.376Z,10.57
2017-10-26T07:45:07.368Z,10.71
2017-10-26T07:47:42.731Z,10.84
2017-10-26T07:50:19.053Z,10.88
2017-10-26T07:52:53.790Z,10.98
2017-10-26T07:55:31.611Z,10.88
2017-10-26T07:58:06.751Z,11.04
2017-10-26T08:00:41.602Z,11.20
2017-10-26T08:03:16.665Z,11.25
2017-10-26T08:05:55.714Z,11.29
2017-10-26T08:08:30.414Z,11.39
2017-10-26T08:11:08.247Z,11.45
2017-10-26T08:13:44.786Z,11.47
2017-10-26T08:16:23.938Z,11.54
2017-10-26T08:18:58.837Z,11.59
2017-10-26T08:21:34.205Z,11.71
2017-10-26T08:24:09.054Z,11.74
2017-10-26T08:26:44.334Z,11.81
2017-10-26T08:29:19.139Z,11.92
2017-10-26T08:31:53.834Z,11.98
2017-10-26T08:34:29.174Z,12.04
2017-10-26T08:37:07.979Z,12.19
2017-10-26T08:39:43.258Z,12.04
2017-10-26T08:42:17.955Z,12.14
2017-10-26T08:44:52.491Z,12.35
2017-10-26T08:47:31.447Z,12.53
2017-10-26T08:50:06.542Z,12.56
2017-10-26T08:52:42.253Z,12.64
2017-10-26T08:55:17.483Z,12.60
2017-10-26T08:57:52.416Z,12.71
2017-10-26T09:00:27.412Z,12.79
2017-10-26T09:03:03.922Z,12.88
2017-10-26T09:05:38.365Z,12.88
2017-10-26T09:08:14.765Z,12.93
2017-10-26T09:10:49.612Z,12.88
2017-10-26T09:13:25.219Z,12.92
2017-10-26T09:15:59.865Z,13.01
2017-10-26T09:18:38.571Z,13.03
2017-10-26T09:21:13.869Z,13.15
2017-10-26T09:23:43.715Z,13.18
2017-10-26T09:26:18.339Z,13.33
2017-10-26T09:28:55.051Z,13.31
2017-10-26T09:31:30.469Z,13.45
2017-10-26T09:34:05.049Z,13.44
2017-10-26T09:36:39.598Z,13.48
2017-10-26T09:39:15.103Z,13.47
2017-10-26T09:41:49.763Z,13.64
2017-10-26T09:44:28.829Z,13.65
2017-10-26T09:47:04.002Z,13.63
2017-10-26T09:49:39.253Z,13.68
2017-10-26T09:52:13.815Z,13.76
2017-10-26T09:54:48.618Z,13.84
2017-10-26T09:57:23.181Z,13.89
2017-10-26T09:59:58.759Z,13.97
2017-10-26T10:02:34.069Z,14.03
2017-10-26T10:05:12.026Z,14.00
2017-10-26T10:07:46.991Z,13.94
2017-10-26T10:10:21.781Z,13.95
2017-10-26T10:12:56.410Z,14.04
2017-10-26T10:15:31.057Z,14.11
2017-10-26T10:18:05.656Z,14.20
2017-10-26T10:20:42.264Z,14.32
2017-10-26T10:23:17.591Z,14.40
2017-10-26T10:25:53.439Z,14.47
2017-10-26T10:28:29.410Z,14.55
2017-10-26T10:31:06.355Z,14.48
2017-10-26T10:33:40.955Z,14.48
2017-10-26T10:36:18.158Z,14.45
2017-10-26T10:38:53.070Z,14.52
2017-10-26T10:41:28.613Z,14.52
2017-10-26T10:44:03.374Z,14.53
2017-10-26T10:46:38.739Z,14.53
2017-10-26T10:49:13.549Z,14.59
2017-10-26T10:51:49.193Z,14.64
2017-10-26T10:54:23.798Z,14.67
2017-10-26T10:56:59.256Z,14.67
2017-10-26T10:59:40.329Z,14.74
2017-10-26T11:02:15.107Z,14.83
2017-10-26T11:04:49.566Z,14.87
2017-10-26T11:07:25.022Z,14.90
2017-10-26T11:09:59.606Z,14.85
2017-10-26T11:12:35.414Z,14.80
2017-10-26T11:15:10.198Z,14.86
2017-10-26T11:17:45.669Z,14.92
2017-10-26T11:20:20.565Z,14.90
2017-10-26T11:23:02.139Z,14.97
2017-10-26T11:25:36.840Z,14.97
2017-10-26T11:28:15.743Z,15.03
2017-10-26T11:30:50.785Z,14.95
2017-10-26T11:33:26.644Z,14.89
2017-10-26T11:36:01.625Z,14.98
2017-10-26T11:38:37.884Z,14.99
2017-10-26T11:41:12.552Z,15.12
2017-10-26T11:43:47.522Z,15.23
2017-10-26T11:46:21.987Z,15.27
2017-10-26T11:48:56.772Z,15.16
2017-10-26T11:51:31.992Z,15.25
2017-10-26T11:54:07.488Z,15.31
2017-10-26T11:56:42.052Z,15.39
2017-10-26T11:59:18.217Z,15.41
2017-10-26T12:01:53.048Z,15.46
2017-10-26T12:04:27.786Z,15.45
2017-10-26T12:07:02.465Z,15.51
2017-10-26T12:09:38.817Z,15.53
2017-10-26T12:12:14.131Z,15.54
2017-10-26T12:14:49.597Z,15.54
2017-10-26T12:17:24.080Z,15.52
2017-10-26T12:19:59.671Z,15.52
2017-10-26T12:22:34.115Z,15.48
2017-10-26T12:25:09.219Z,15.46
2017-10-26T12:27:45.968Z,15.51
2017-10-26T12:30:20.811Z,15.63
2017-10-26T12:32:56.171Z,15.69
2017-10-26T12:35:30.853Z,15.60
2017-10-26T12:38:06.138Z,15.67
2017-10-26T12:40:40.675Z,15.72
2017-10-26T12:43:16.128Z,15.75
2017-10-26T12:45:50.699Z,15.75
2017-10-26T12:48:25.195Z,15.75
2017-10-26T12:51:04.131Z,15.75
2017-10-26T12:53:39.155Z,15.76
2017-10-26T12:56:17.517Z,15.77
2017-10-26T12:58:52.680Z,15.78
2017-10-26T13:01:28.265Z,15.81
2017-10-26T13:04:05.618Z,15.77
2017-10-26T13:06:40.493Z,15.77
2017-10-26T13:09:15.112Z,15.71
2017-10-26T13:11:49.724Z,15.71
2017-10-26T13:14:24.269Z,15.74
2017-10-26T13:17:00.788Z,15.73
2017-10-26T13:19:35.378Z,15.75
2017-10-26T13:22:09.999Z,15.74
2017-10-26T13:24:36.801Z,15.68
2017-10-26T13:27:12.818Z,15.68
2017-10-26T13:29:48.093Z,15.73
2017-10-26T13:32:23.868Z,15.79
2017-10-26T13:34:59.032Z,15.82
2017-10-26T13:37:36.078Z,15.78
2017-10-26T13:40:10.862Z,15.78
2017-10-26T13:42:47.002Z,15.86
2017-10-26T13:45:21.796Z,15.81
2017-10-26T13:48:01.945Z,15.78
2017-10-26T13:50:36.700Z,15.77
2017-10-26T13:53:12.088Z,15.75
2017-10-26T13:55:46.606Z,15.78
2017-10-26T13:58:21.092Z,15.73
2017-10-26T14:00:56.766Z,15.70
2017-10-26T14:03:33.102Z,15.63
2017-10-26T14:06:08.450Z,15.64
2017-10-26T14:08:43.761Z,15.64
2017-10-26T14:11:19.054Z,15.61
2017-10-26T14:13:53.504Z,15.56
2017-10-26T14:16:27.946Z,15.34
2017-10-26T14:19:04.138Z,15.25
2017-10-26T14:21:38.700Z,15.22
2017-10-26T14:24:14.424Z,15.20
2017-10-26T14:26:49.715Z,15.12
2017-10-26T14:29:25.008Z,15.11
2017-10-26T14:32:00.505Z,15.05
2017-10-26T14:34:35.449Z,15.02
2017-10-26T14:37:10.590Z,14.88
2017-10-26T14:39:46.884Z,14.83
2017-10-26T14:42:21.707Z,14.78
2017-10-26T14:44:56.574Z,14.75
2017-10-26T14:47:31.990Z,14.69
2017-10-26T14:50:10.915Z,14.61
2017-10-26T14:52:50.543Z,14.51
2017-10-26T14:55:26.103Z,14.46
2017-10-26T14:58:00.671Z,14.41
2017-10-26T15:00:35.261Z,14.30
2017-10-26T15:03:10.781Z,14.26
2017-10-26T15:05:47.213Z,14.21
2017-10-26T15:08:23.688Z,14.06
2017-10-26T15:11:01.517Z,13.96
2017-10-26T15:13:36.436Z,13.82
2017-10-26T15:16:13.425Z,13.66
2017-10-26T15:18:48.104Z,13.51
2017-10-26T15:21:23.592Z,13.46
2017-10-26T15:26:54.083Z,13.43
2017-10-26T15:29:30.563Z,13.41
2017-10-26T15:32:05.539Z,13.28
2017-10-26T15:34:41.016Z,13.26
2017-10-26T15:37:17.378Z,13.20
2017-10-26T15:39:52.123Z,13.15
2017-10-26T15:42:28.980Z,13.07
2017-10-26T15:45:03.846Z,13.04
2017-10-26T15:47:41.145Z,13.03
2017-10-26T15:50:15.885Z,12.93
2017-10-26T15:52:53.340Z,12.87
2017-10-26T15:55:28.413Z,12.81
2017-10-26T15:58:10.073Z,12.77
2017-10-26T16:00:50.937Z,12.77
2017-10-26T16:03:27.723Z,12.75
2017-10-26T16:06:02.410Z,12.73
2017-10-26T16:08:40.549Z,12.78
2017-10-26T16:11:24.419Z,12.81
2017-10-26T16:13:59.354Z,12.88
2017-10-26T16:16:33.907Z,12.90
2017-10-26T16:19:11.108Z,12.83
2017-10-26T16:21:46.143Z,12.77
2017-10-26T16:24:29.478Z,12.74
2017-10-26T16:27:04.517Z,12.70
2017-10-26T16:29:39.755Z,12.56
2017-10-26T16:32:15.106Z,12.43
2017-10-26T16:34:49.827Z,12.37
2017-10-26T16:37:24.715Z,12.28
2017-10-26T16:40:00.207Z,12.22
2017-10-26T16:42:34.921Z,12.16
2017-10-26T16:45:10.561Z,12.08
2017-10-26T16:47:45.254Z,12.12
2017-10-26T16:50:24.704Z,12.05
2017-10-26T16:53:01.840Z,11.97
2017-10-26T16:55:38.093Z,11.89
2017-10-26T17:00:57.144Z,11.69
2017-10-26T17:03:31.727Z,11.65
2017-10-26T17:06:08.327Z,11.59
2017-10-26T17:08:43.072Z,11.54
2017-10-26T17:11:23.366Z,11.54
2017-10-26T17:13:59.187Z,11.48
2017-10-26T17:16:35.478Z,11.35
2017-10-26T17:19:10.118Z,11.24
2017-10-26T17:21:46.477Z,11.20
2017-10-26T17:24:13.196Z,11.12
2017-10-26T17:26:47.756Z,10.97
2017-10-26T17:29:23.382Z,10.85
2017-10-26T17:32:00.516Z,10.85
2017-10-26T17:34:37.590Z,10.77
2017-10-26T17:37:12.911Z,10.76
2017-10-26T17:39:49.266Z,10.65
2017-10-26T17:42:24.825Z,10.72
2017-10-26T17:45:00.063Z,10.78
2017-10-26T17:47:42.427Z,10.92
2017-10-26T17:50:17.020Z,11.07
2017-10-26T17:52:53.254Z,11.19
2017-10-26T17:55:29.705Z,11.22
2017-10-26T17:58:05.159Z,11.18
2017-10-26T18:00:45.305Z,11.08
2017-10-26T18:03:20.125Z,10.99
2017-10-26T18:05:55.365Z,11.04
2017-10-26T18:08:33.211Z,11.08
2017-10-26T18:11:08.323Z,11.11
2017-10-26T18:13:44.902Z,11.08
2017-10-26T18:16:22.329Z,11.04
2017-10-26T18:19:14.405Z,11.06
2017-10-26T18:21:49.314Z,11.01
2017-10-26T18:24:28.882Z,11.00
2017-10-26T18:27:04.098Z,10.99
2017-10-26T18:29:40.237Z,10.91
2017-10-26T18:32:18.957Z,10.94
2017-10-26T18:34:56.016Z,10.90
2017-10-26T18:37:31.830Z,10.82
2017-10-26T18:40:08.009Z,10.83
2017-10-26T18:42:43.586Z,10.81
2017-10-26T18:45:19.068Z,10.79
2017-10-26T18:47:56.375Z,10.83
2017-10-26T18:50:30.952Z,10.83
2017-10-26T18:53:06.188Z,10.78
2017-10-26T18:55:46.350Z,10.67
2017-10-26T18:58:23.048Z,10.55
2017-10-26T19:01:08.083Z,10.51
2017-10-26T19:03:43.829Z,10.44
2017-10-26T19:06:21.456Z,10.43
2017-10-26T19:08:56.955Z,10.41
2017-10-26T19:11:34.375Z,10.36
2017-10-26T19:14:10.909Z,10.33
2017-10-26T19:16:46.373Z,10.25
2017-10-26T19:19:23.852Z,10.18
2017-10-26T19:22:01.848Z,10.17
2017-10-26T19:24:35.494Z,10.25
2017-10-26T19:27:15.889Z,10.30
2017-10-26T19:29:50.733Z,10.34
2017-10-26T19:32:31.198Z,10.40
2017-10-26T19:35:06.824Z,10.46
2017-10-26T19:37:46.991Z,10.37
2017-10-26T19:43:06.262Z,10.26
2017-10-26T19:45:42.553Z,10.27
2017-10-26T19:48:18.033Z,10.24
2017-10-26T19:50:53.453Z,10.23
2017-10-26T19:53:28.114Z,10.19
2017-10-26T19:56:12.494Z,10.15
2017-10-26T19:58:52.995Z,10.10
2017-10-26T20:01:30.159Z,10.11
2017-10-26T20:04:15.249Z,10.09
2017-10-26T20:09:27.238Z,10.04
2017-10-26T20:12:03.133Z,10.05
2017-10-26T20:14:38.627Z,9.99
2017-10-26T20:17:13.232Z,10.00
2017-10-26T20:19:48.931Z,9.90
2017-10-26T20:22:23.432Z,9.83
2017-10-26T20:25:01.908Z,9.86
2017-10-26T20:27:36.483Z,9.94
2017-10-26T20:30:04.270Z,9.98
2017-10-26T20:32:38.293Z,10.10
2017-10-26T20:35:15.278Z,10.23
2017-10-26T20:37:49.748Z,10.21
2017-10-26T20:40:24.415Z,10.36
2017-10-26T20:43:00.216Z,10.45
2017-10-26T20:45:36.534Z,10.55
2017-10-26T20:48:11.122Z,10.55
2017-10-26T20:50:52.906Z,10.60
2017-10-26T20:53:33.625Z,10.69
2017-10-26T20:56:16.021Z,10.72
2017-10-26T20:58:57.130Z,10.81
2017-10-26T21:01:39.999Z,10.85
2017-10-26T21:04:21.185Z,10.79
2017-10-26T21:07:00.332Z,10.78
2017-10-26T21:09:35.113Z,10.78
2017-10-26T21:12:18.483Z,10.77
2017-10-26T21:15:02.418Z,10.81
2017-10-26T21:17:45.119Z,10.81
2017-10-26T21:20:22.279Z,10.77
2017-10-26T21:25:55.165Z,10.78
2017-10-26T21:28:30.012Z,10.80
2017-10-26T21:31:05.605Z,10.82
2017-10-26T21:33:46.871Z,10.78
2017-10-26T21:36:21.712Z,10.83
2017-10-26T21:39:02.916Z,10.84
2017-10-26T21:41:39.596Z,10.87
2017-10-26T21:44:22.381Z,10.83
2017-10-26T21:46:59.467Z,10.83
2017-10-26T21:49:39.882Z,10.85
2017-10-26T21:52:14.475Z,10.86
2017-10-26T21:54:49.895Z,10.88
2017-10-26T21:57:24.696Z,10.95
2017-10-26T22:00:04.567Z,10.99
2017-10-26T22:02:39.578Z,11.06
2017-10-26T22:05:16.934Z,11.08
2017-10-26T22:07:56.238Z,11.08
2017-10-26T22:10:32.882Z,11.06
2017-10-26T22:15:53.626Z,11.13
2017-10-26T22:18:28.129Z,11.11
2017-10-26T22:21:08.385Z,11.10
2017-10-26T22:23:45.997Z,11.01
2017-10-26T22:26:21.374Z,10.98
2017-10-26T22:28:58.738Z,10.87
2017-10-26T22:31:36.322Z,10.81
2017-10-26T22:34:11.677Z,10.81
2017-10-26T22:36:51.748Z,10.75
2017-10-26T22:39:39.155Z,10.68
2017-10-26T22:42:14.365Z,10.60
2017-10-26T22:44:51.229Z,10.58
2017-10-26T22:47:30.217Z,10.65
2017-10-26T22:50:05.886Z,10.65
2017-10-26T22:52:42.530Z,10.73
2017-10-26T22:55:17.090Z,10.82
2017-10-26T22:57:53.626Z,10.91
2017-10-26T23:00:32.118Z,10.99
2017-10-26T23:03:12.565Z,11.02
2017-10-26T23:05:47.317Z,11.00
2017-10-26T23:08:28.493Z,11.04
2017-10-26T23:11:03.326Z,11.09
2017-10-26T23:13:45.475Z,11.11
2017-10-26T23:16:20.248Z,11.11
2017-10-26T23:18:55.734Z,11.02
2017-10-26T23:21:33.127Z,10.95
2017-10-26T23:24:06.514Z,10.95
2017-10-26T23:26:41.958Z,10.95
2017-10-26T23:29:20.570Z,10.95
2017-10-26T23:32:07.680Z,10.90
2017-10-26T23:34:50.192Z,10.95
2017-10-26T23:37:25.420Z,10.96
2017-10-26T23:40:05.116Z,10.91
2017-10-26T23:42:40.632Z,10.93
2017-10-26T23:45:31.831Z,11.04
2017-10-26T23:48:15.762Z,11.11
2017-10-26T23:50:56.281Z,11.14
2017-10-26T23:53:31.057Z,11.04
2017-10-26T23:56:14.206Z,10.96
2017-10-26T23:58:56.785Z,10.93
